createdAt,value
2023-01-15T00:00:19.667Z,2.70
2023-01-15T00:02:47.840Z,1.73
2023-01-15T00:05:19.130Z,2.00
2023-01-15T00:07:51.957Z,1.73
2023-01-15T00:10:20.406Z,1.97
2023-01-15T00:12:48.777Z,1.60
2023-01-15T00:15:17.655Z,1.73
2023-01-15T00:17:46.044Z,1.60
2023-01-15T00:20:14.716Z,1.47
2023-01-15T00:22:43.097Z,1.57
2023-01-15T00:25:45.294Z,1.30
2023-01-15T00:28:15.239Z,1.30
2023-01-15T00:30:49.618Z,1.50
2023-01-15T00:33:17.974Z,1.50
2023-01-15T00:35:48.987Z,1.23
2023-01-15T00:38:17.307Z,0.90
2023-01-15T00:40:53.119Z,1.10
2023-01-15T00:43:21.352Z,1.13
2023-01-15T00:45:55.658Z,1.30
2023-01-15T00:48:24.043Z,1.03
2023-01-15T00:50:52.725Z,1.20
2023-01-15T00:53:21.099Z,0.90
2023-01-15T00:55:51.221Z,1.37
2023-01-15T00:58:19.417Z,1.00
2023-01-15T01:00:48.212Z,1.10
2023-01-15T01:03:16.506Z,0.70
2023-01-15T01:05:44.858Z,1.10
2023-01-15T01:08:14.357Z,0.80
2023-01-15T01:10:46.431Z,0.77
2023-01-15T01:13:16.411Z,0.80
2023-01-15T01:15:46.833Z,1.17
2023-01-15T01:18:15.088Z,0.60
2023-01-15T01:20:43.387Z,0.70
2023-01-15T01:23:11.605Z,0.70
2023-01-15T01:25:43.246Z,0.80
2023-01-15T01:28:11.882Z,0.67
2023-01-15T01:30:41.705Z,0.80
2023-01-15T01:33:10.184Z,0.90
2023-01-15T01:35:41.249Z,1.00
2023-01-15T01:38:10.690Z,0.90
2023-01-15T01:40:41.678Z,1.00
2023-01-15T01:43:21.028Z,0.80
2023-01-15T01:45:50.967Z,1.20
2023-01-15T01:48:20.844Z,0.70
2023-01-15T01:50:51.028Z,0.90
2023-01-15T01:53:24.405Z,0.90
2023-01-15T01:55:54.171Z,1.10
2023-01-15T01:58:24.489Z,1.17
2023-01-15T02:00:54.860Z,1.00
2023-01-15T02:03:29.196Z,0.60
2023-01-15T02:06:00.971Z,1.10
2023-01-15T02:08:29.657Z,0.90
2023-01-15T02:10:58.234Z,0.80
2023-01-15T02:13:33.533Z,0.80
2023-01-15T02:16:11.333Z,0.80
2023-01-15T02:18:48.968Z,0.80
2023-01-15T02:21:28.865Z,0.90
2023-01-15T02:24:16.348Z,0.70
2023-01-15T02:27:07.216Z,1.03
2023-01-15T02:29:56.773Z,0.97
2023-01-15T02:32:42.024Z,0.80
2023-01-15T02:35:42.519Z,0.70
2023-01-15T02:38:21.999Z,0.60
2023-01-15T02:40:55.703Z,0.80
2023-01-15T02:43:42.228Z,0.60
2023-01-15T02:46:12.125Z,1.00
2023-01-15T02:48:42.956Z,0.80
2023-01-15T02:51:15.373Z,0.70
2023-01-15T02:53:48.142Z,0.87
2023-01-15T02:56:18.858Z,0.73
2023-01-15T02:58:51.887Z,0.70
2023-01-15T03:01:23.559Z,0.53
2023-01-15T03:04:02.170Z,0.70
2023-01-15T03:06:45.681Z,0.80
2023-01-15T03:09:15.253Z,0.50
2023-01-15T03:11:50.995Z,0.80
2023-01-15T03:14:30.697Z,0.50
2023-01-15T03:17:02.105Z,0.60
2023-01-15T03:19:36.110Z,0.70
2023-01-15T03:22:08.430Z,0.53
2023-01-15T03:24:43.531Z,0.80
2023-01-15T03:27:12.353Z,0.70
2023-01-15T03:29:47.309Z,0.90
2023-01-15T03:32:17.431Z,0.77
2023-01-15T03:34:47.821Z,0.63
2023-01-15T03:37:16.504Z,0.70
2023-01-15T03:39:45.230Z,0.67
2023-01-15T03:42:29.139Z,0.60
2023-01-15T03:45:07.985Z,0.80
2023-01-15T03:47:47.536Z,0.70
2023-01-15T03:50:23.999Z,0.70
2023-01-15T03:53:04.867Z,0.73
2023-01-15T03:55:44.667Z,0.60
2023-01-15T03:58:21.638Z,0.60
2023-01-15T04:00:54.310Z,0.73
2023-01-15T04:03:25.783Z,0.57
2023-01-15T04:05:57.221Z,0.50
2023-01-15T04:08:37.732Z,0.70
2023-01-15T04:11:07.024Z,0.50
2023-01-15T04:13:35.893Z,0.70
2023-01-15T04:16:06.420Z,0.60
2023-01-15T04:18:40.339Z,0.70
2023-01-15T04:21:08.644Z,0.50
2023-01-15T04:23:42.540Z,1.10
2023-01-15T04:26:10.837Z,0.60
2023-01-15T04:28:39.121Z,0.70
2023-01-15T04:31:08.995Z,0.73
2023-01-15T04:33:37.528Z,0.80
2023-01-15T04:36:06.634Z,0.50
2023-01-15T04:38:36.258Z,0.70
2023-01-15T04:41:23.187Z,0.60
2023-01-15T04:44:10.062Z,0.50
2023-01-15T04:46:41.871Z,0.67
2023-01-15T04:49:12.304Z,0.57
2023-01-15T04:51:41.045Z,0.60
2023-01-15T04:54:09.900Z,0.60
2023-01-15T04:56:41.071Z,0.80
2023-01-15T04:59:10.758Z,0.70
2023-01-15T05:01:48.561Z,0.80
2023-01-15T05:04:26.625Z,0.90
2023-01-15T05:06:54.871Z,0.70
2023-01-15T05:09:23.083Z,1.00
2023-01-15T05:11:51.242Z,0.97
2023-01-15T05:14:19.876Z,0.63
2023-01-15T05:16:49.631Z,1.00
2023-01-15T05:19:17.942Z,0.80
2023-01-15T05:21:46.616Z,0.70
2023-01-15T05:24:17.140Z,1.20
2023-01-15T05:26:45.679Z,0.90
2023-01-15T05:29:14.614Z,0.93
2023-01-15T05:31:46.281Z,1.60
2023-01-15T05:34:16.441Z,1.37
2023-01-15T05:36:45.855Z,1.30
2023-01-15T05:39:14.120Z,1.33
2023-01-15T05:41:51.353Z,1.10
2023-01-15T05:44:23.119Z,1.40
2023-01-15T05:46:52.217Z,1.53
2023-01-15T05:49:27.107Z,1.50
2023-01-15T05:51:55.958Z,1.20
2023-01-15T05:54:26.373Z,1.53
2023-01-15T05:56:56.486Z,1.53
2023-01-15T05:59:26.710Z,1.47
2023-01-15T06:01:55.310Z,1.30
2023-01-15T06:04:25.565Z,1.63
2023-01-15T06:06:55.735Z,1.17
2023-01-15T06:09:24.177Z,1.97
2023-01-15T06:11:53.825Z,1.50
2023-01-15T06:14:25.355Z,1.33
2023-01-15T06:16:53.619Z,1.40
2023-01-15T06:19:21.957Z,1.20
2023-01-15T06:21:51.804Z,1.70
2023-01-15T06:24:20.896Z,2.53
2023-01-15T06:26:49.231Z,1.27
2023-01-15T06:29:19.067Z,1.57
2023-01-15T06:31:48.357Z,1.93
2023-01-15T06:34:16.991Z,1.67
2023-01-15T06:36:45.394Z,1.50
2023-01-15T06:39:15.124Z,1.57
2023-01-15T06:42:00.927Z,1.57
2023-01-15T06:44:46.762Z,1.60
2023-01-15T06:47:24.220Z,1.43
2023-01-15T06:49:55.120Z,1.90
2023-01-15T06:52:24.620Z,1.30
2023-01-15T06:54:55.012Z,1.30
2023-01-15T06:57:23.586Z,1.40
2023-01-15T06:59:59.863Z,2.40
2023-01-15T07:02:28.140Z,1.60
2023-01-15T07:04:58.021Z,2.23
2023-01-15T07:07:26.649Z,1.70
2023-01-15T07:09:57.042Z,1.83
2023-01-15T07:12:25.308Z,1.93
2023-01-15T07:14:54.143Z,1.50
2023-01-15T07:17:22.444Z,1.70
2023-01-15T07:19:52.141Z,1.83
2023-01-15T07:22:20.458Z,1.60
2023-01-15T07:24:48.993Z,1.93
2023-01-15T07:27:18.663Z,2.37
2023-01-15T07:29:48.363Z,2.60
2023-01-15T07:32:17.001Z,2.20
2023-01-15T07:34:46.115Z,1.50
2023-01-15T07:37:14.317Z,1.80
2023-01-15T07:39:42.552Z,2.03
2023-01-15T07:42:37.810Z,1.83
2023-01-15T07:45:27.388Z,1.80
2023-01-15T07:48:13.385Z,2.37
2023-01-15T07:50:41.626Z,1.90
2023-01-15T07:53:09.796Z,1.80
2023-01-15T07:55:38.263Z,1.67
2023-01-15T07:58:06.536Z,1.83
2023-01-15T08:00:36.151Z,1.67
2023-01-15T08:03:07.557Z,2.00
2023-01-15T08:05:35.779Z,2.17
2023-01-15T08:08:06.610Z,2.50
2023-01-15T08:10:59.039Z,2.07
2023-01-15T08:13:44.744Z,1.90
2023-01-15T08:16:15.353Z,1.97
2023-01-15T08:18:52.583Z,2.33
2023-01-15T08:21:21.795Z,2.00
2023-01-15T08:24:26.078Z,1.73
2023-01-15T08:26:55.187Z,2.57
2023-01-15T08:29:23.919Z,1.90
2023-01-15T08:31:53.784Z,3.33
2023-01-15T08:34:22.388Z,2.37
2023-01-15T08:36:57.605Z,1.50
2023-01-15T08:39:25.907Z,2.00
2023-01-15T08:41:54.268Z,1.90
2023-01-15T08:44:23.769Z,2.23
2023-01-15T08:46:55.504Z,2.20
2023-01-15T08:49:23.969Z,2.13
2023-01-15T08:51:53.466Z,2.53
2023-01-15T08:54:24.618Z,2.07
2023-01-15T08:56:58.385Z,2.60
2023-01-15T08:59:27.095Z,2.10
2023-01-15T09:01:56.978Z,2.23
2023-01-15T09:04:25.649Z,2.00
2023-01-15T09:06:54.307Z,2.77
2023-01-15T09:09:22.734Z,2.30
2023-01-15T09:11:51.063Z,1.90
2023-01-15T09:15:00.292Z,1.60
2023-01-15T09:17:10.297Z,2.33
2023-01-15T09:19:39.155Z,2.00
2023-01-15T09:22:07.626Z,2.20
2023-01-15T09:24:35.931Z,2.57
2023-01-15T09:27:04.676Z,2.10
2023-01-15T09:29:34.377Z,2.73
2023-01-15T09:32:02.827Z,2.17
2023-01-15T09:34:32.601Z,2.60
2023-01-15T09:37:02.385Z,2.47
2023-01-15T09:39:30.878Z,2.30
2023-01-15T09:42:16.406Z,2.33
2023-01-15T09:45:08.979Z,3.20
2023-01-15T09:47:44.620Z,2.07
2023-01-15T09:50:25.416Z,2.13
2023-01-15T09:53:12.052Z,2.73
2023-01-15T09:55:46.978Z,2.70
2023-01-15T09:58:18.118Z,1.90
2023-01-15T10:00:48.682Z,2.50
2023-01-15T10:03:27.050Z,2.70
2023-01-15T10:06:04.191Z,2.47
2023-01-15T10:08:36.242Z,2.57
2023-01-15T10:11:07.475Z,2.30
2023-01-15T10:13:44.594Z,2.07
2023-01-15T10:16:15.397Z,2.37
2023-01-15T10:18:43.873Z,2.33
2023-01-15T10:21:24.403Z,2.10
2023-01-15T10:24:03.018Z,2.07
2023-01-15T10:26:36.659Z,2.27
2023-01-15T10:29:13.812Z,2.10
2023-01-15T10:32:19.336Z,3.03
2023-01-15T10:35:09.596Z,2.40
2023-01-15T10:37:46.261Z,2.03
2023-01-15T10:40:28.492Z,1.93
2023-01-15T10:43:03.811Z,2.23
2023-01-15T10:45:35.791Z,2.97
2023-01-15T10:48:12.746Z,1.73
2023-01-15T10:50:41.995Z,2.90
2023-01-15T10:53:36.691Z,1.90
2023-01-15T10:56:14.180Z,2.03
2023-01-15T10:58:47.467Z,2.07
2023-01-15T11:01:19.944Z,2.30
2023-01-15T11:03:48.893Z,2.20
2023-01-15T11:06:24.983Z,2.10
2023-01-15T11:09:12.675Z,2.53
2023-01-15T11:12:03.078Z,1.67
2023-01-15T11:14:57.033Z,1.90
2023-01-15T11:17:43.795Z,2.00
2023-01-15T11:20:19.223Z,2.07
2023-01-15T11:22:50.061Z,2.17
2023-01-15T11:25:31.295Z,1.60
2023-01-15T11:28:01.781Z,2.47
2023-01-15T11:30:33.569Z,2.20
2023-01-15T11:33:05.378Z,2.23
2023-01-15T11:35:35.191Z,2.50
2023-01-15T11:38:09.521Z,2.07
2023-01-15T11:40:53.657Z,2.03
2023-01-15T11:43:41.583Z,2.10
2023-01-15T11:46:42.293Z,2.20
2023-01-15T11:49:29.267Z,1.97
2023-01-15T11:51:59.972Z,2.10
2023-01-15T11:54:28.997Z,2.27
2023-01-15T11:57:00.324Z,1.80
2023-01-15T11:59:28.727Z,1.93
2023-01-15T12:02:08.964Z,1.50
2023-01-15T12:04:45.317Z,1.93
2023-01-15T12:07:15.638Z,1.60
2023-01-15T12:10:02.684Z,2.03
2023-01-15T12:12:43.671Z,1.80
2023-01-15T12:15:24.055Z,1.90
2023-01-15T12:18:16.329Z,1.87
2023-01-15T12:20:59.798Z,1.90
2023-01-15T12:23:46.184Z,2.23
2023-01-15T12:26:43.487Z,2.17
2023-01-15T12:29:23.419Z,2.30
2023-01-15T12:31:58.915Z,2.23
2023-01-15T12:34:43.284Z,2.10
2023-01-15T12:37:21.226Z,2.10
2023-01-15T12:39:53.753Z,1.97
2023-01-15T12:42:52.889Z,1.80
2023-01-15T12:45:27.185Z,2.33
2023-01-15T12:48:02.444Z,2.10
2023-01-15T12:50:44.853Z,1.60
2023-01-15T12:53:21.555Z,2.13
2023-01-15T12:55:56.261Z,1.97
2023-01-15T12:58:47.201Z,1.93
2023-01-15T13:01:27.074Z,1.77
2023-01-15T13:04:14.820Z,2.27
2023-01-15T13:06:48.768Z,2.33
2023-01-15T13:09:36.480Z,1.90
2023-01-15T13:12:05.138Z,2.30
2023-01-15T13:14:33.547Z,2.77
2023-01-15T13:17:18.597Z,2.30
2023-01-15T13:19:59.898Z,1.80
2023-01-15T13:22:31.905Z,1.80
2023-01-15T13:25:30.682Z,1.83
2023-01-15T13:28:14.436Z,2.23
2023-01-15T13:30:54.278Z,2.37
2023-01-15T13:33:31.149Z,2.10
2023-01-15T13:36:08.979Z,3.20
2023-01-15T13:38:43.376Z,1.77
2023-01-15T13:41:12.063Z,1.90
2023-01-15T13:43:44.092Z,2.17
2023-01-15T13:46:14.823Z,2.20
2023-01-15T13:48:48.833Z,2.37
2023-01-15T13:51:29.366Z,2.10
2023-01-15T13:54:33.965Z,2.40
2023-01-15T13:57:09.562Z,1.70
2023-01-15T13:59:44.611Z,2.33
2023-01-15T14:02:26.153Z,2.30
2023-01-15T14:04:57.451Z,2.20
2023-01-15T14:07:37.728Z,3.20
2023-01-15T14:10:25.113Z,2.20
2023-01-15T14:13:07.980Z,2.40
2023-01-15T14:15:47.689Z,2.10
2023-01-15T14:18:40.554Z,2.17
2023-01-15T14:21:24.736Z,1.90
2023-01-15T14:24:18.591Z,2.03
2023-01-15T14:26:55.533Z,2.20
2023-01-15T14:29:51.012Z,2.10
2023-01-15T14:32:30.122Z,2.50
2023-01-15T14:35:00.738Z,2.13
2023-01-15T14:37:57.640Z,2.50
2023-01-15T14:40:31.517Z,2.17
2023-01-15T14:43:02.235Z,2.30
2023-01-15T14:45:33.659Z,2.23
2023-01-15T14:48:16.725Z,2.10
2023-01-15T14:50:45.735Z,2.83
2023-01-15T14:53:33.889Z,2.13
2023-01-15T14:56:13.153Z,2.03
2023-01-15T14:58:56.303Z,2.03
2023-01-15T15:01:36.858Z,2.53
2023-01-15T15:04:23.611Z,1.70
2023-01-15T15:06:55.548Z,2.10
2023-01-15T15:09:34.199Z,2.40
2023-01-15T15:12:24.222Z,3.10
2023-01-15T15:15:01.697Z,2.23
2023-01-15T15:17:41.265Z,2.03
2023-01-15T15:20:29.374Z,2.10
2023-01-15T15:23:04.889Z,3.07
2023-01-15T15:25:39.533Z,2.10
2023-01-15T15:28:11.659Z,1.83
2023-01-15T15:30:45.495Z,2.60
2023-01-15T15:33:19.241Z,2.27
2023-01-15T15:35:51.055Z,1.90
2023-01-15T15:38:22.549Z,2.40
2023-01-15T15:45:03.105Z,2.87
2023-01-15T15:47:57.307Z,1.97
2023-01-15T15:50:34.186Z,2.33
2023-01-15T15:53:06.685Z,2.57
2023-01-15T15:55:40.512Z,1.90
2023-01-15T15:58:11.178Z,2.17
2023-01-15T16:00:43.471Z,2.40
2023-01-15T16:03:20.928Z,2.57
2023-01-15T16:06:05.794Z,2.20
2023-01-15T16:08:35.772Z,2.17
2023-01-15T16:11:07.449Z,2.23
2023-01-15T16:13:39.745Z,1.80
2023-01-15T16:16:10.635Z,1.73
2023-01-15T16:18:44.599Z,1.90
2023-01-15T16:21:20.057Z,2.30
2023-01-15T16:23:58.113Z,1.60
2023-01-15T16:26:34.455Z,1.80
2023-01-15T16:29:05.173Z,1.63
2023-01-15T16:31:39.143Z,1.80
2023-01-15T16:34:07.739Z,1.30
2023-01-15T16:36:41.521Z,1.67
2023-01-15T16:39:22.286Z,1.70
2023-01-15T16:41:52.405Z,2.10
2023-01-15T16:44:33.700Z,1.97
2023-01-15T16:47:09.419Z,1.93
2023-01-15T16:49:37.686Z,2.10
2023-01-15T16:52:50.416Z,1.93
2023-01-15T16:55:41.545Z,2.33
2023-01-15T16:58:22.668Z,1.50
2023-01-15T17:00:53.375Z,2.00
2023-01-15T17:03:25.385Z,1.80
2023-01-15T17:05:56.403Z,1.53
2023-01-15T17:08:38.761Z,2.00
2023-01-15T17:11:17.561Z,1.80
2023-01-15T17:13:46.796Z,1.40
2023-01-15T17:16:20.443Z,1.97
2023-01-15T17:18:51.949Z,1.60
2023-01-15T17:21:23.745Z,2.50
2023-01-15T17:23:52.480Z,1.23
2023-01-15T17:26:23.272Z,1.53
2023-01-15T17:28:57.695Z,1.63
2023-01-15T17:31:28.557Z,2.83
2023-01-15T17:33:59.562Z,1.70
2023-01-15T17:36:29.451Z,1.40
2023-01-15T17:38:58.986Z,1.67
2023-01-15T17:41:28.291Z,2.00
2023-01-15T17:43:57.026Z,1.97
2023-01-15T17:46:25.632Z,1.90
2023-01-15T17:48:54.045Z,1.93
2023-01-15T17:51:24.042Z,1.80
2023-01-15T17:53:52.570Z,1.30
2023-01-15T17:56:38.405Z,1.60
2023-01-15T17:59:24.433Z,1.57
2023-01-15T18:02:10.454Z,1.57
2023-01-15T18:05:00.201Z,1.87
2023-01-15T18:07:33.959Z,1.83
2023-01-15T18:10:03.511Z,2.20
2023-01-15T18:12:32.277Z,1.37
2023-01-15T18:15:00.586Z,1.43
2023-01-15T18:17:31.817Z,1.30
2023-01-15T18:20:00.521Z,1.40
2023-01-15T18:22:31.222Z,1.40
2023-01-15T18:24:59.484Z,1.73
2023-01-15T18:27:30.390Z,1.40
2023-01-15T18:29:59.429Z,1.20
2023-01-15T18:32:30.752Z,1.47
2023-01-15T18:34:59.271Z,1.10
2023-01-15T18:37:36.483Z,1.60
2023-01-15T18:40:06.300Z,1.60
2023-01-15T18:42:51.848Z,1.40
2023-01-15T18:45:37.849Z,1.37
2023-01-15T18:48:08.302Z,1.53
2023-01-15T18:50:36.892Z,1.30
2023-01-15T18:53:08.762Z,1.20
2023-01-15T18:55:38.558Z,1.47
2023-01-15T18:58:06.966Z,1.50
2023-01-15T19:00:35.524Z,1.43
2023-01-15T19:03:04.984Z,1.13
2023-01-15T19:05:34.545Z,1.60
2023-01-15T19:08:03.325Z,1.30
2023-01-15T19:10:33.137Z,1.23
2023-01-15T19:13:03.269Z,1.20
2023-01-15T19:15:49.399Z,1.53
2023-01-15T19:18:35.913Z,1.20
2023-01-15T19:21:10.527Z,1.20
2023-01-15T19:23:40.919Z,1.07
2023-01-15T19:26:11.043Z,1.50
2023-01-15T19:28:42.413Z,1.00
2023-01-15T19:31:29.387Z,1.30
2023-01-15T19:34:31.188Z,1.27
2023-01-15T19:36:48.696Z,1.10
2023-01-15T19:39:18.614Z,1.07
2023-01-15T19:42:08.314Z,1.70
2023-01-15T19:44:53.923Z,1.00
2023-01-15T19:47:44.111Z,1.13
2023-01-15T19:50:21.308Z,1.23
2023-01-15T19:52:51.460Z,1.17
2023-01-15T19:55:21.489Z,1.17
2023-01-15T19:58:00.381Z,1.30
2023-01-15T20:00:29.327Z,0.93
2023-01-15T20:02:58.990Z,1.20
2023-01-15T20:05:30.292Z,1.40
2023-01-15T20:07:59.547Z,1.10
2023-01-15T20:10:30.087Z,1.00
2023-01-15T20:13:17.314Z,0.73
2023-01-15T20:15:51.603Z,0.90
2023-01-15T20:18:22.904Z,1.00
2023-01-15T20:20:51.535Z,0.90
2023-01-15T20:23:19.804Z,1.10
2023-01-15T20:25:57.315Z,0.90
2023-01-15T20:28:27.092Z,0.63
2023-01-15T20:30:56.424Z,0.60
2023-01-15T20:33:25.047Z,1.00
2023-01-15T20:35:54.589Z,0.80
2023-01-15T20:38:24.949Z,0.80
2023-01-15T20:40:53.390Z,0.80
2023-01-15T20:43:40.481Z,1.00
2023-01-15T20:46:17.632Z,0.83
2023-01-15T20:49:03.236Z,0.77
2023-01-15T20:51:33.355Z,0.90
2023-01-15T20:54:16.546Z,0.80
2023-01-15T20:56:44.912Z,0.80
2023-01-15T20:59:21.537Z,1.10
2023-01-15T21:01:53.543Z,0.80
2023-01-15T21:04:30.192Z,0.93
2023-01-15T21:06:58.621Z,0.60
2023-01-15T21:09:26.995Z,0.60
2023-01-15T21:11:55.588Z,0.70
2023-01-15T21:14:25.294Z,1.13
2023-01-15T21:16:55.170Z,0.50
2023-01-15T21:19:24.923Z,0.70
2023-01-15T21:21:53.273Z,0.63
2023-01-15T21:24:23.524Z,0.80
2023-01-15T21:26:54.249Z,0.70
2023-01-15T21:29:24.373Z,0.80
2023-01-15T21:31:54.095Z,0.70
2023-01-15T21:34:24.124Z,1.00
2023-01-15T21:37:02.965Z,0.90
2023-01-15T21:39:43.271Z,0.70
2023-01-15T21:42:34.837Z,0.67
2023-01-15T21:45:06.735Z,0.70
2023-01-15T21:47:37.021Z,0.70
2023-01-15T21:50:07.735Z,0.80
2023-01-15T21:52:37.190Z,0.70
2023-01-15T21:55:07.618Z,0.87
2023-01-15T21:57:35.942Z,0.53
2023-01-15T22:00:08.029Z,0.87
2023-01-15T22:02:44.881Z,0.60
2023-01-15T22:05:14.879Z,0.90
2023-01-15T22:07:51.567Z,0.67
2023-01-15T22:10:20.208Z,0.70
2023-01-15T22:12:49.470Z,0.60
2023-01-15T22:15:17.928Z,0.80
2023-01-15T22:17:47.043Z,0.70
2023-01-15T22:20:16.948Z,0.73
2023-01-15T22:22:45.141Z,0.60
2023-01-15T22:25:15.810Z,0.90
2023-01-15T22:27:44.117Z,0.60
2023-01-15T22:30:15.721Z,0.50
2023-01-15T22:32:44.336Z,0.50
2023-01-15T22:35:14.352Z,0.53
2023-01-15T22:37:44.051Z,0.70
2023-01-15T22:40:13.809Z,0.73
2023-01-15T22:42:42.093Z,0.70
2023-01-15T22:45:20.779Z,0.70
2023-01-15T22:47:51.221Z,0.70
2023-01-15T22:50:19.936Z,0.70
2023-01-15T22:52:52.174Z,0.63
2023-01-15T22:55:20.552Z,0.90
2023-01-15T22:57:49.295Z,0.80
2023-01-15T23:00:19.043Z,0.60
2023-01-15T23:02:58.231Z,0.70
2023-01-15T23:05:26.460Z,0.50
2023-01-15T23:07:56.386Z,1.00
2023-01-15T23:10:24.595Z,0.90
2023-01-15T23:12:52.886Z,0.80
2023-01-15T23:15:21.143Z,0.60
2023-01-15T23:29:12.600Z,1.17
2023-01-15T23:31:40.829Z,0.80
2023-01-15T23:34:10.227Z,0.70
2023-01-15T23:36:39.402Z,0.80
2023-01-15T23:39:08.119Z,0.70
2023-01-15T23:41:53.991Z,0.70
2023-01-15T23:44:41.562Z,0.97
2023-01-15T23:47:10.236Z,0.80
2023-01-15T23:49:38.596Z,0.67
2023-01-15T23:52:07.954Z,0.90
2023-01-15T23:54:36.333Z,0.80
2023-01-15T23:57:04.919Z,0.80
2023-01-15T23:59:34.632Z,0.90
